ADDS METAR Data INFO
IDs: Format: Raw Decoded Include TAF

Data at: 0112 UTC 24 Jun 2018

KMTV 240055Z AUTO 00000KT 10SM CLR 23/21 A2988 RMK AO2 T02300212
KMTV 240035Z AUTO 00000KT 10SM CLR 24/22 A2988 RMK AO2 T02400215
KMTV 240015Z AUTO 00000KT 10SM CLR 25/22 A2988 RMK AO2 T02480218
KMTV 232355Z AUTO 00000KT 10SM CLR 26/21 A2987 RMK AO2 T02640213 10302 20264
KMTV 232335Z AUTO 00000KT 10SM CLR 28/21 A2987 RMK AO2 T02830205
KMTV 232315Z AUTO 00000KT 10SM SCT100 29/20 A2987 RMK AO2 T02920199
KMTV 232255Z AUTO 00000KT 10SM SCT100 30/20 A2986 RMK AO2 T02950199
KMTV 232235Z AUTO 00000KT 10SM SCT110 30/19 A2986 RMK AO2 T02970193
KMTV 232215Z AUTO 00000KT 10SM SCT050 SCT065 SCT110 30/20 A2986 RMK AO2 T02950202
KMTV 232155Z AUTO 30004KT 10SM SCT060 BKN065 BKN075 30/20 A2987 RMK AO2 T02990198
KMTV 232135Z AUTO 29003KT 10SM BKN060 BKN075 OVC110 30/20 A2986 RMK AO2 T02960197
KMTV 232115Z AUTO 31003KT 10SM SCT050 SCT060 BKN070 29/20 A2987 RMK AO2 T02920198
KMTV 232055Z AUTO 00000KT 10SM SCT050 OVC110 28/19 A2987 RMK AO2 T02800194
KMTV 232035Z AUTO 25004KT 10SM SCT048 SCT080 BKN110 29/20 A2987 RMK AO2 T02920197
KMTV 232015Z AUTO 00000KT 10SM BKN048 BKN080 BKN100 29/19 A2987 RMK AO2 T02920193
KMTV 231955Z AUTO 27004KT 10SM SCT048 SCT050 BKN100 30/20 A2988 RMK AO2 T02980200
KMTV 231935Z AUTO 25005KT 10SM SCT047 SCT050 BKN100 29/20 A2988 RMK AO2 T02900196
KMTV 231915Z AUTO 19003KT 10SM SCT044 SCT050 BKN065 29/20 A2989 RMK AO2 T02870195
KMTV 231855Z AUTO 22005G14KT 10SM SCT042 SCT095 29/19 A2989 RMK AO2 T02890192
KMTV 231835Z AUTO 24003KT 10SM SCT042 29/20 A2990 RMK AO2 T02880199
KMTV 231815Z AUTO 26004KT 10SM CLR 28/20 A2990 RMK AO2 T02840199
KMTV 231755Z AUTO 25005KT 10SM CLR 28/21 A2990 RMK AO2 60006 T02780208 10278 20207
KMTV 231735Z AUTO 21005KT 10SM SCT030 SCT090 27/21 A2990 RMK AO2 T02690212
KMTV 231715Z AUTO 00000KT 10SM BKN090 25/22 A2991 RMK AO2 T02540215
KMTV 231655Z AUTO 00000KT 10SM OVC080 25/22 A2991 RMK AO2 P0006 T02450219
KMTV 231635Z AUTO 00000KT 10SM SCT024 SCT047 OVC070 24/21 A2991 RMK AO2 P0006 T02400211
KMTV 231615Z AUTO 00000KT 3SM +RA SCT023 BKN028 OVC050 23/21 A2992 RMK AO2 P0005 T02300205
KMTV 231555Z AUTO 00000KT 10SM SCT028 BKN032 OVC080 25/21 A2992 RMK AO2 T02530205
KMTV 231535Z AUTO 32003KT 10SM OVC080 26/20 A2991 RMK AO2 T02580202
KMTV 231515Z AUTO 25003KT 10SM SCT019 BKN080 BKN110 25/20 A2991 RMK AO2 T02530199
KMTV 231455Z AUTO 23004KT 10SM SCT017 BKN080 BKN110 25/20 A2991 RMK AO2 T02450200
KMTV 231430Z AUTO 22003KT 10SM BKN015 OVC022 24/20 A2991 RMK AO2 T02430201
KMTV 231415Z AUTO 00000KT 10SM SCT012 OVC019 23/20 A2991 RMK AO2 T02300197
KMTV 231355Z AUTO 00000KT 10SM BKN015 OVC019 22/20 A2991 RMK AO2 T02240198
KMTV 231335Z AUTO 00000KT 10SM OVC013 22/20 A2991 RMK AO2 T02190197
KMTV 231315Z AUTO 00000KT 10SM OVC011 22/19 A2991 RMK AO2 T02180194
KMTV 231255Z AUTO 00000KT 10SM OVC011 22/19 A2991 RMK AO2 T02180194
KMTV 231235Z AUTO 00000KT 10SM OVC011 21/20 A2991 RMK AO2 T02140196
KMTV 231215Z AUTO 00000KT 10SM OVC008 21/20 A2990 RMK AO2 T02100196
KMTV 231155Z AUTO 00000KT 10SM OVC008 21/20 A2990 RMK AO2 T02070195 10207 20200
KMTV 231135Z AUTO 00000KT 10SM OVC008 21/20 A2989 RMK AO2 T02050196
KMTV 231115Z AUTO 00000KT 10SM OVC006 21/20 A2988 RMK AO2 T02050196
KMTV 231055Z AUTO 00000KT 10SM OVC004 20/20 A2988 RMK AO2 T02020195
KMTV 231035Z AUTO 00000KT 10SM OVC004 20/20 A2988 RMK AO2 T02010195
KMTV 231015Z AUTO 00000KT 10SM OVC004 20/20 A2987 RMK AO2 T02000195
KMTV 230955Z AUTO 00000KT 10SM OVC004 20/20 A2987 RMK AO2 T02000195
KMTV 230935Z AUTO 00000KT 10SM OVC006 20/20 A2987 RMK AO2 T02000195
KMTV 230915Z AUTO 00000KT 10SM OVC006 20/20 A2987 RMK AO2 T02000195
KMTV 230855Z AUTO 00000KT 10SM OVC006 20/20 A2987 RMK AO2 T02010195
KMTV 230835Z AUTO 00000KT 10SM OVC006 20/20 A2986 RMK AO2 T02000195
KMTV 230815Z AUTO 00000KT 10SM OVC006 20/20 A2987 RMK AO2 T02000195
KMTV 230755Z AUTO 00000KT 10SM OVC006 20/19 A2987 RMK AO2 T02000194
KMTV 230735Z AUTO 00000KT 10SM OVC006 20/20 A2987 RMK AO2 T02010195
KMTV 230715Z AUTO 00000KT 10SM OVC006 20/19 A2987 RMK AO2 T02020194
KMTV 230655Z AUTO 00000KT 10SM OVC006 20/19 A2987 RMK AO2 T02010194
KMTV 230635Z AUTO 00000KT 10SM OVC006 20/19 A2988 RMK AO2 T02000193
KMTV 230615Z AUTO 00000KT 10SM OVC006 20/19 A2987 RMK AO2 T02000193
KMTV 230555Z AUTO 36003KT 10SM OVC006 20/19 A2988 RMK AO2 T02000193 10260 20200
KMTV 230535Z AUTO 02003KT 10SM OVC006 20/19 A2987 RMK AO2 T02000192
KMTV 230515Z AUTO 01004KT 10SM OVC006 20/19 A2988 RMK AO2 T02020192
KMTV 230455Z AUTO 03003KT 10SM OVC006 20/19 A2988 RMK AO2 T02030193 403170195
KMTV 230435Z AUTO 06003KT 10SM OVC008 21/19 A2988 RMK AO2 T02050192
KMTV 230415Z AUTO 03003KT 10SM OVC008 21/19 A2988 RMK AO2 T02050193
KMTV 230355Z AUTO 04005KT 10SM OVC008 21/19 A2988 RMK AO2 T02050192
KMTV 230335Z AUTO 01005KT 10SM OVC008 21/19 A2988 RMK AO2 T02070192
KMTV 230315Z AUTO 01003KT 10SM OVC008 21/20 A2988 RMK AO2 T02100195
KMTV 230255Z AUTO 02004KT 10SM BKN008 BKN050 BKN080 21/20 A2988 RMK AO2 T02130198
KMTV 230235Z AUTO 04004KT 10SM SCT008 SCT050 BKN090 22/20 A2988 RMK AO2 T02170202
KMTV 230215Z AUTO 02006KT 10SM SCT050 SCT065 OVC090 22/21 A2987 RMK AO2 T02230205
KMTV 230155Z AUTO 00000KT 10SM SCT055 BKN070 BKN100 23/21 A2986 RMK AO2 T02290210
KMTV 230135Z AUTO 00000KT 10SM SCT055 23/21 A2985 RMK AO2 T02290211
KMTV 230115Z AUTO 02003KT 10SM SCT055 23/22 A2983 RMK AO2 T02330215
KMTV 230055Z AUTO 00000KT 10SM SCT055 SCT110 23/22 A2983 RMK AO2 T02300216
KMTV 230035Z AUTO 00000KT 10SM SCT070 BKN110 24/22 A2982 RMK AO2 T02380215
KMTV 230015Z AUTO 00000KT 10SM BKN070 25/21 A2983 RMK AO2 T02520214
KMTV 222355Z AUTO 00000KT 10SM BKN070 BKN085 BKN120 26/21 A2982 RMK AO2 LTG DSNT N T02610213 10317 20261
KMTV 222335Z AUTO 00000KT 10SM SCT120 27/21 A2981 RMK AO2 T02650212
KMTV 222315Z AUTO 30003KT 10SM SCT090 28/21 A2980 RMK AO2 T02750211
KMTV 222255Z AUTO 29003KT 10SM SCT090 27/21 A2980 RMK AO2 LTG DSNT N T02700208
KMTV 222235Z AUTO 31007KT 280V340 10SM CLR 29/21 A2980 RMK AO2 LTG DSNT N AND NE T02850207
KMTV 222215Z AUTO 00000KT 10SM SCT120 28/21 A2979 RMK AO2 LTG DSNT N T02810209
KMTV 222155Z AUTO 00000KT 10SM CLR 28/20 A2979 RMK AO2 LTG DSNT N T02830204
KMTV 222135Z AUTO 00000KT 10SM CLR 29/21 A2978 RMK AO2 LTG DSNT NW T02870205
KMTV 222115Z AUTO 21003KT 10SM SCT050 SCT065 30/21 A2978 RMK AO2 T03010208
KMTV 222055Z AUTO 18005KT 10SM SCT050 SCT065 31/21 A2978 RMK AO2 T03070206
KMTV 222035Z AUTO 21003KT 10SM SCT045 SCT060 31/21 A2979 RMK AO2 T03110211
KMTV 222015Z AUTO 20003KT 10SM SCT045 SCT060 31/21 A2979 RMK AO2 T03130206
KMTV 221955Z AUTO 00000KT 10SM SCT043 SCT049 SCT060 30/21 A2980 RMK AO2 T03040210
KMTV 221935Z AUTO 22006KT 10SM SCT043 SCT049 SCT060 31/22 A2980 RMK AO2 T03090215
KMTV 221915Z AUTO 00000KT 10SM SCT034 SCT049 SCT060 30/21 A2981 RMK AO2 T03000212
KMTV 221855Z AUTO 20006KT 10SM SCT034 BKN042 BKN055 30/22 A2982 RMK AO2 T03000217
KMTV 221835Z AUTO 18003KT 10SM SCT036 BKN045 BKN060 30/22 A2982 RMK AO2 LTG DSNT N T02960216
KMTV 221815Z AUTO 16004KT 10SM SCT034 SCT043 SCT060 30/22 A2983 RMK AO2 T03020223
KMTV 221755Z AUTO 15007KT 10SM SCT031 SCT037 BKN060 29/22 A2983 RMK AO2 T02910221 10295 20205
KMTV 221735Z AUTO 18005KT 10SM SCT032 BKN037 BKN045 29/22 A2985 RMK AO2 T02920224
KMTV 221715Z AUTO 17003KT 10SM SCT031 SCT038 BKN046 28/21 A2985 RMK AO2 T02760214
KMTV 221655Z AUTO 17003KT 10SM SCT047 SCT060 29/22 A2986 RMK AO2 T02850219
KMTV 221635Z AUTO 15005KT 10SM SCT024 SCT032 BKN060 29/23 A2986 RMK AO2 T02910225
KMTV 221615Z AUTO 13003KT 10SM SCT020 SCT065 28/22 A2987 RMK AO2 T02800216
KMTV 221555Z AUTO 15004KT 10SM SCT020 27/22 A2987 RMK AO2 T02730221
KMTV 221535Z AUTO 00000KT 10SM SCT016 26/22 A2988 RMK AO2 T02610223
KMTV 221515Z AUTO 00000KT 10SM SCT014 25/22 A2988 RMK AO2 T02530221
KMTV 221455Z AUTO 00000KT 10SM SCT010 25/22 A2988 RMK AO2 T02460217
KMTV 221435Z AUTO 00000KT 10SM SCT006 24/22 A2988 RMK AO2 T02420217
KMTV 221415Z AUTO 00000KT 10SM OVC006 23/21 A2988 RMK AO2 T02250214
KMTV 221355Z AUTO 00000KT 10SM OVC004 22/21 A2988 RMK AO2 T02220214
KMTV 221335Z AUTO 00000KT 10SM OVC004 22/22 A2988 RMK AO2 T02200216
KMTV 221315Z AUTO 00000KT 10SM OVC004 22/22 A2988 RMK AO2 T02150215